Terminal Aerodrome Forecast
Issued by NWS

Current Version | Previous Version | Text Only | Print | Product List | Glossary On
Versions: 1 2 3 4 5 6 7 8 9 10 11 12 13 14 15 16 17
000
FTUS46 KLOX 251121
TAFPMD
TAF
KPMD 251121Z 2512/2612 20018KT P6SM SKC
     FM251700 23020G30KT P6SM SKC
     FM251900 23025G35KT 6SM BLDU SKC
     FM260300 22018G28KT P6SM SKC
     FM260600 23015KT P6SM SKC=

USA.gov is the U.S. government's official web portal to all federal, state and local government web resources and services.